createdAt,value
2022-09-20T00:04:06.835Z,6.87
2022-09-20T00:09:08.608Z,6.78
2022-09-20T00:14:10.248Z,6.69
2022-09-20T00:19:18.683Z,6.70
2022-09-20T00:24:20.445Z,6.65
2022-09-20T00:29:22.386Z,6.61
2022-09-20T00:34:42.771Z,6.52
2022-09-20T00:39:44.504Z,6.40
2022-09-20T00:45:00.512Z,6.27
2022-09-20T00:50:08.184Z,6.18
2022-09-20T00:55:10.245Z,6.04
2022-09-20T01:00:12.895Z,5.94
2022-09-20T01:05:15.728Z,6.02
2022-09-20T01:10:17.732Z,6.04
2022-09-20T01:15:23.239Z,6.02
2022-09-20T01:20:33.753Z,6.02
2022-09-20T01:26:05.607Z,5.96
2022-09-20T01:31:29.187Z,5.87
2022-09-20T01:36:36.210Z,5.85
2022-09-20T01:41:44.043Z,5.83
2022-09-20T01:46:49.171Z,5.83
2022-09-20T01:52:27.602Z,5.83
2022-09-20T01:57:35.401Z,5.83
2022-09-20T02:03:14.675Z,5.86
2022-09-20T02:08:44.440Z,5.81
2022-09-20T02:14:14.978Z,5.75
2022-09-20T02:19:50.917Z,5.74
2022-09-20T02:25:03.839Z,5.74
2022-09-20T02:30:34.642Z,5.73
2022-09-20T02:35:53.302Z,5.70
2022-09-20T02:41:00.680Z,5.60
2022-09-20T02:46:21.021Z,5.60
2022-09-20T02:51:41.172Z,5.57
2022-09-20T02:56:55.520Z,5.45
2022-09-20T03:02:11.027Z,5.40
2022-09-20T03:07:18.532Z,5.40
2022-09-20T03:12:49.358Z,5.36
2022-09-20T03:18:06.419Z,5.39
2022-09-20T03:23:40.603Z,5.36
2022-09-20T03:28:50.277Z,5.27
2022-09-20T03:34:38.107Z,5.36
2022-09-20T03:40:18.593Z,5.46
2022-09-20T03:45:39.029Z,5.57
2022-09-20T03:51:08.637Z,5.57
2022-09-20T03:56:16.090Z,5.55
2022-09-20T04:01:42.201Z,5.51
2022-09-20T04:07:13.099Z,5.46
2022-09-20T04:12:42.355Z,5.50
2022-09-20T04:18:04.208Z,5.55
2022-09-20T04:23:21.626Z,5.56
2022-09-20T04:28:40.401Z,5.59
2022-09-20T04:33:48.499Z,5.52
2022-09-20T04:39:18.000Z,5.39
2022-09-20T04:44:27.736Z,5.27
2022-09-20T04:49:33.669Z,5.24
2022-09-20T04:54:53.360Z,5.08
2022-09-20T05:00:18.749Z,5.00
2022-09-20T05:05:39.256Z,4.95
2022-09-20T05:11:02.730Z,4.93
2022-09-20T05:16:08.309Z,4.98
2022-09-20T05:21:46.420Z,4.98
2022-09-20T05:26:50.932Z,5.03
2022-09-20T05:31:55.594Z,5.04
2022-09-20T05:37:09.432Z,5.01
2022-09-20T05:42:24.764Z,4.93
2022-09-20T05:47:45.137Z,4.92
2022-09-20T05:52:59.238Z,4.91
2022-09-20T05:58:44.815Z,5.02
2022-09-20T06:03:55.847Z,5.10
2022-09-20T06:09:00.499Z,5.21
2022-09-20T06:14:43.358Z,5.36
2022-09-20T06:20:27.173Z,5.50
2022-09-20T06:25:45.037Z,5.63
2022-09-20T06:30:55.213Z,5.85
2022-09-20T06:36:19.859Z,6.04
2022-09-20T06:41:28.332Z,6.22
2022-09-20T06:46:36.074Z,6.43
2022-09-20T06:51:39.359Z,6.75
2022-09-20T06:56:41.013Z,6.90
2022-09-20T07:01:43.059Z,7.05
2022-09-20T07:06:44.751Z,7.18
2022-09-20T07:11:46.527Z,7.26
2022-09-20T07:16:48.077Z,7.40
2022-09-20T07:21:49.804Z,7.54
2022-09-20T07:27:03.498Z,7.75
2022-09-20T07:32:05.257Z,8.02
2022-09-20T07:37:07.035Z,8.16
2022-09-20T07:42:08.954Z,8.25
2022-09-20T07:47:11.174Z,8.39
2022-09-20T07:52:14.713Z,8.50
2022-09-20T07:57:17.140Z,8.77
2022-09-20T08:02:18.802Z,8.96
2022-09-20T08:07:20.437Z,9.13
2022-09-20T08:17:47.428Z,9.61
2022-09-20T08:23:06.318Z,9.99
2022-09-20T08:28:10.604Z,10.18
2022-09-20T08:33:12.990Z,10.86
2022-09-20T08:43:45.651Z,11.02
2022-09-20T08:48:47.341Z,11.41
2022-09-20T08:53:53.055Z,11.46
2022-09-20T08:58:56.268Z,11.57
2022-09-20T09:04:14.819Z,11.82
2022-09-20T09:09:25.575Z,12.09
2022-09-20T09:14:49.003Z,12.20
2022-09-20T09:19:50.966Z,12.45
2022-09-20T09:25:09.451Z,13.54
2022-09-20T09:30:27.622Z,13.72
2022-09-20T09:35:31.517Z,13.66
2022-09-20T09:40:33.290Z,13.94
2022-09-20T09:45:40.804Z,14.20
2022-09-20T09:50:42.535Z,14.17
2022-09-20T09:56:04.543Z,14.43
2022-09-20T10:01:14.575Z,15.73
2022-09-20T10:06:37.789Z,21.26
2022-09-20T10:12:06.891Z,24.09
2022-09-20T10:17:34.993Z,25.87
2022-09-20T10:23:39.510Z,27.59
2022-09-20T10:29:03.597Z,27.48
2022-09-20T10:34:35.869Z,28.90
2022-09-20T10:39:41.041Z,29.59
2022-09-20T10:45:01.916Z,29.67
2022-09-20T10:50:29.484Z,29.41
2022-09-20T10:55:37.154Z,29.61
2022-09-20T11:01:01.494Z,29.34
2022-09-20T11:06:39.930Z,30.02
2022-09-20T11:11:51.957Z,30.94
2022-09-20T11:17:00.248Z,30.57
2022-09-20T11:22:25.635Z,30.83
2022-09-20T11:27:32.858Z,31.41
2022-09-20T11:32:44.634Z,31.45
2022-09-20T11:38:18.673Z,28.89
2022-09-20T11:43:21.720Z,29.25
2022-09-20T11:48:29.595Z,29.90
2022-09-20T11:53:56.480Z,30.02
2022-09-20T11:59:01.337Z,29.08
2022-09-20T12:04:38.621Z,28.63
2022-09-20T12:09:43.967Z,28.90
2022-09-20T12:14:55.164Z,28.65
2022-09-20T12:19:56.879Z,28.83
2022-09-20T12:25:36.714Z,26.81
2022-09-20T12:30:38.338Z,22.58
2022-09-20T12:35:40.109Z,22.55
2022-09-20T12:41:15.513Z,24.28
2022-09-20T12:46:34.732Z,24.64
2022-09-20T12:51:54.913Z,24.80
2022-09-20T12:56:56.934Z,24.64
2022-09-20T13:02:37.353Z,23.60
2022-09-20T13:07:43.787Z,22.20
2022-09-20T13:12:49.500Z,23.38
2022-09-20T13:17:59.113Z,23.79
2022-09-20T13:23:03.449Z,23.85
2022-09-20T13:28:21.168Z,24.34
2022-09-20T13:33:25.085Z,24.18
2022-09-20T13:38:30.046Z,22.54
2022-09-20T13:43:31.568Z,22.92
2022-09-20T13:48:33.246Z,23.51
2022-09-20T13:53:42.869Z,23.02
2022-09-20T13:58:44.735Z,21.14
2022-09-20T14:03:47.285Z,21.71
2022-09-20T14:08:51.260Z,22.19
2022-09-20T14:13:55.521Z,22.37
2022-09-20T14:18:58.800Z,22.37
2022-09-20T14:24:06.506Z,21.15
2022-09-20T14:29:30.681Z,20.32
2022-09-20T14:34:36.530Z,20.68
2022-09-20T14:39:47.925Z,20.76
2022-09-20T14:44:53.003Z,20.94
2022-09-20T14:49:55.559Z,21.14
2022-09-20T14:55:20.479Z,20.93
2022-09-20T15:00:22.325Z,20.87
2022-09-20T15:05:26.556Z,20.40
2022-09-20T15:10:29.600Z,20.08
2022-09-20T15:15:32.351Z,20.15
2022-09-20T15:20:34.256Z,20.04
2022-09-20T15:25:35.985Z,19.68
2022-09-20T15:30:37.492Z,19.39
2022-09-20T15:35:41.742Z,19.20
2022-09-20T15:40:46.058Z,19.15
2022-09-20T15:45:52.368Z,19.02
2022-09-20T15:51:04.464Z,18.81
2022-09-20T15:56:21.938Z,18.68
2022-09-20T16:01:24.112Z,18.43
2022-09-20T16:06:26.333Z,18.12
2022-09-20T16:11:28.184Z,17.92
2022-09-20T16:16:36.124Z,17.83
2022-09-20T16:21:42.689Z,17.64
2022-09-20T16:26:47.559Z,17.38
2022-09-20T16:31:50.205Z,17.21
2022-09-20T16:36:54.622Z,17.08
2022-09-20T16:42:05.027Z,16.94
2022-09-20T16:47:10.490Z,16.79
2022-09-20T16:52:12.220Z,16.59
2022-09-20T16:57:14.475Z,16.44
2022-09-20T17:02:16.150Z,16.28
2022-09-20T17:07:17.820Z,16.02
2022-09-20T17:12:22.362Z,15.73
2022-09-20T17:17:24.004Z,15.42
2022-09-20T17:22:25.578Z,15.20
2022-09-20T17:27:27.143Z,15.02
2022-09-20T17:32:29.350Z,14.85
2022-09-20T17:37:32.099Z,14.64
2022-09-20T17:42:34.611Z,14.41
2022-09-20T17:47:36.148Z,14.15
2022-09-20T17:52:37.692Z,13.76
2022-09-20T17:57:39.229Z,13.47
2022-09-20T18:02:40.883Z,13.28
2022-09-20T18:07:42.575Z,13.08
2022-09-20T18:12:44.242Z,13.08
2022-09-20T18:17:45.772Z,13.05
2022-09-20T18:22:50.369Z,12.95
2022-09-20T18:27:52.379Z,12.81
2022-09-20T18:32:54.005Z,12.68
2022-09-20T18:37:55.600Z,12.52
2022-09-20T18:43:04.561Z,12.38
2022-09-20T18:48:08.757Z,12.24
2022-09-20T18:53:10.540Z,12.03
2022-09-20T18:58:12.262Z,11.88
2022-09-20T19:03:23.344Z,11.72
2022-09-20T19:08:51.353Z,11.59
2022-09-20T19:14:22.114Z,11.44
2022-09-20T19:20:06.159Z,11.22
2022-09-20T19:25:37.866Z,11.11
2022-09-20T19:30:40.472Z,11.03
2022-09-20T19:35:49.363Z,10.94
2022-09-20T19:41:06.602Z,10.85
2022-09-20T19:46:36.760Z,10.72
2022-09-20T19:51:40.304Z,10.60
2022-09-20T19:56:59.366Z,10.48
2022-09-20T20:02:01.816Z,10.43
2022-09-20T20:07:27.959Z,10.28
2022-09-20T20:13:04.221Z,10.10
2022-09-20T20:18:25.199Z,9.96
2022-09-20T20:23:27.879Z,9.91
2022-09-20T20:28:30.353Z,9.80
2022-09-20T20:33:32.891Z,9.69
2022-09-20T20:38:39.372Z,9.63
2022-09-20T20:43:42.946Z,9.51
2022-09-20T20:48:46.081Z,9.47
2022-09-20T20:53:50.308Z,9.41
2022-09-20T20:58:52.929Z,9.34
2022-09-20T21:03:56.157Z,9.20
2022-09-20T21:08:58.506Z,9.22
2022-09-20T21:14:01.709Z,9.16
2022-09-20T21:19:05.302Z,9.07
2022-09-20T21:24:09.525Z,9.09
2022-09-20T21:29:12.272Z,9.03
2022-09-20T21:34:15.534Z,8.89
2022-09-20T21:39:17.199Z,8.77
2022-09-20T21:44:20.485Z,8.68
2022-09-20T21:49:22.098Z,8.68
2022-09-20T21:54:24.192Z,8.54
2022-09-20T21:59:26.881Z,8.47
2022-09-20T22:04:28.923Z,8.39
2022-09-20T22:09:30.949Z,8.44
2022-09-20T22:14:32.547Z,8.36
2022-09-20T22:19:34.848Z,8.25
2022-09-20T22:24:36.487Z,8.18
2022-09-20T22:29:38.007Z,8.12
2022-09-20T22:34:39.544Z,8.01
2022-09-20T22:39:41.503Z,8.03
2022-09-20T22:44:43.041Z,8.01
2022-09-20T22:49:44.752Z,7.87
2022-09-20T22:54:46.794Z,7.71
2022-09-20T22:59:48.315Z,7.61
2022-09-20T23:04:49.907Z,7.55
2022-09-20T23:09:51.538Z,7.47
2022-09-20T23:14:53.084Z,7.52
2022-09-20T23:19:54.658Z,7.54
2022-09-20T23:24:56.258Z,7.49
2022-09-20T23:29:57.768Z,7.39
2022-09-20T23:34:59.340Z,7.27
2022-09-20T23:40:01.014Z,7.24
2022-09-20T23:45:02.711Z,7.23
2022-09-20T23:50:04.556Z,7.15
2022-09-20T23:55:06.412Z,7.15
